sensor_id;sensor_type;location;lat;lon;timestamp;P1;durP1;ratioP1;P2;durP2;ratioP2
16308;SDS011;8263;48.880;9.276;2023-04-30T00:02:26;126.57;;;117.88;;
16308;SDS011;8263;48.880;9.276;2023-04-30T00:04:53;126.55;;;117.78;;
16308;SDS011;8263;48.880;9.276;2023-04-30T00:07:20;127.45;;;118.65;;
16308;SDS011;8263;48.880;9.276;2023-04-30T00:09:46;127.85;;;119.03;;
16308;SDS011;8263;48.880;9.276;2023-04-30T00:12:13;127.45;;;118.63;;
16308;SDS011;8263;48.880;9.276;2023-04-30T00:14:40;127.10;;;118.30;;
16308;SDS011;8263;48.880;9.276;2023-04-30T00:17:08;126.55;;;117.75;;
16308;SDS011;8263;48.880;9.276;2023-04-30T00:19:34;126.88;;;118.18;;
16308;SDS011;8263;48.880;9.276;2023-04-30T00:22:01;127.78;;;118.97;;
16308;SDS011;8263;48.880;9.276;2023-04-30T00:24:29;124.93;;;116.35;;
16308;SDS011;8263;48.880;9.276;2023-04-30T00:26:56;125.00;;;116.40;;
16308;SDS011;8263;48.880;9.276;2023-04-30T00:29:22;126.97;;;118.20;;
16308;SDS011;8263;48.880;9.276;2023-04-30T00:31:49;124.15;;;115.65;;
16308;SDS011;8263;48.880;9.276;2023-04-30T00:34:17;123.97;;;115.45;;
16308;SDS011;8263;48.880;9.276;2023-04-30T00:36:44;126.03;;;117.40;;
16308;SDS011;8263;48.880;9.276;2023-04-30T00:39:10;128.38;;;119.45;;
16308;SDS011;8263;48.880;9.276;2023-04-30T00:41:36;127.88;;;119.00;;
16308;SDS011;8263;48.880;9.276;2023-04-30T00:44:03;127.70;;;118.85;;
16308;SDS011;8263;48.880;9.276;2023-04-30T00:46:31;127.43;;;118.63;;
16308;SDS011;8263;48.880;9.276;2023-04-30T00:48:59;127.28;;;118.40;;
16308;SDS011;8263;48.880;9.276;2023-04-30T00:51:30;126.03;;;117.28;;
16308;SDS011;8263;48.880;9.276;2023-04-30T00:53:56;128.25;;;119.45;;
16308;SDS011;8263;48.880;9.276;2023-04-30T00:56:23;127.40;;;118.60;;
16308;SDS011;8263;48.880;9.276;2023-04-30T00:58:50;124.22;;;115.72;;
16308;SDS011;8263;48.880;9.276;2023-04-30T01:01:21;128.02;;;119.22;;
16308;SDS011;8263;48.880;9.276;2023-04-30T01:03:48;126.30;;;117.55;;
16308;SDS011;8263;48.880;9.276;2023-04-30T01:06:14;127.53;;;118.50;;
16308;SDS011;8263;48.880;9.276;2023-04-30T01:08:42;128.73;;;119.80;;
16308;SDS011;8263;48.880;9.276;2023-04-30T01:11:11;128.30;;;119.38;;
16308;SDS011;8263;48.880;9.276;2023-04-30T01:13:44;127.80;;;118.90;;
16308;SDS011;8263;48.880;9.276;2023-04-30T01:16:19;128.18;;;119.25;;
16308;SDS011;8263;48.880;9.276;2023-04-30T01:18:48;129.30;;;120.20;;
16308;SDS011;8263;48.880;9.276;2023-04-30T01:21:17;127.55;;;118.60;;
16308;SDS011;8263;48.880;9.276;2023-04-30T01:23:58;128.68;;;119.60;;
16308;SDS011;8263;48.880;9.276;2023-04-30T01:26:28;128.23;;;119.32;;
16308;SDS011;8263;48.880;9.276;2023-04-30T01:29:02;126.95;;;118.07;;
16308;SDS011;8263;48.880;9.276;2023-04-30T01:31:29;128.75;;;119.55;;
16308;SDS011;8263;48.880;9.276;2023-04-30T01:33:56;127.50;;;118.60;;
16308;SDS011;8263;48.880;9.276;2023-04-30T01:36:29;128.43;;;119.45;;
16308;SDS011;8263;48.880;9.276;2023-04-30T01:39:01;128.20;;;119.30;;
16308;SDS011;8263;48.880;9.276;2023-04-30T01:41:31;129.55;;;120.40;;
16308;SDS011;8263;48.880;9.276;2023-04-30T01:44:05;128.27;;;119.38;;
16308;SDS011;8263;48.880;9.276;2023-04-30T01:46:37;130.65;;;121.45;;
16308;SDS011;8263;48.880;9.276;2023-04-30T01:49:07;129.85;;;120.65;;
16308;SDS011;8263;48.880;9.276;2023-04-30T01:51:38;127.13;;;118.35;;
16308;SDS011;8263;48.880;9.276;2023-04-30T01:54:08;128.95;;;119.88;;
16308;SDS011;8263;48.880;9.276;2023-04-30T01:56:38;129.70;;;120.55;;
16308;SDS011;8263;48.880;9.276;2023-04-30T01:59:08;131.43;;;121.80;;
16308;SDS011;8263;48.880;9.276;2023-04-30T02:01:35;129.90;;;120.68;;
16308;SDS011;8263;48.880;9.276;2023-04-30T02:04:02;128.80;;;119.72;;
16308;SDS011;8263;48.880;9.276;2023-04-30T02:06:28;128.02;;;119.05;;
16308;SDS011;8263;48.880;9.276;2023-04-30T02:08:55;130.65;;;121.10;;
16308;SDS011;8263;48.880;9.276;2023-04-30T02:11:27;127.68;;;118.57;;
16308;SDS011;8263;48.880;9.276;2023-04-30T02:13:53;129.27;;;120.22;;
16308;SDS011;8263;48.880;9.276;2023-04-30T02:16:21;128.73;;;119.55;;
16308;SDS011;8263;48.880;9.276;2023-04-30T02:18:48;129.80;;;120.68;;
16308;SDS011;8263;48.880;9.276;2023-04-30T02:21:15;129.90;;;120.57;;
16308;SDS011;8263;48.880;9.276;2023-04-30T02:23:42;129.38;;;120.28;;
16308;SDS011;8263;48.880;9.276;2023-04-30T02:26:08;132.57;;;123.07;;
16308;SDS011;8263;48.880;9.276;2023-04-30T02:28:35;131.65;;;122.38;;
16308;SDS011;8263;48.880;9.276;2023-04-30T02:31:01;130.02;;;120.63;;
16308;SDS011;8263;48.880;9.276;2023-04-30T02:33:29;131.32;;;122.05;;
16308;SDS011;8263;48.880;9.276;2023-04-30T02:35:57;131.10;;;121.43;;
16308;SDS011;8263;48.880;9.276;2023-04-30T02:38:24;130.75;;;121.35;;
16308;SDS011;8263;48.880;9.276;2023-04-30T02:40:51;127.80;;;118.90;;
16308;SDS011;8263;48.880;9.276;2023-04-30T02:43:17;129.88;;;120.80;;
16308;SDS011;8263;48.880;9.276;2023-04-30T02:45:43;130.68;;;121.47;;
16308;SDS011;8263;48.880;9.276;2023-04-30T02:48:10;130.80;;;121.60;;
16308;SDS011;8263;48.880;9.276;2023-04-30T02:50:38;129.95;;;120.03;;
16308;SDS011;8263;48.880;9.276;2023-04-30T02:53:05;130.38;;;121.13;;
16308;SDS011;8263;48.880;9.276;2023-04-30T02:55:31;131.18;;;121.80;;
16308;SDS011;8263;48.880;9.276;2023-04-30T02:57:58;130.55;;;121.20;;
16308;SDS011;8263;48.880;9.276;2023-04-30T03:00:24;129.85;;;120.68;;
16308;SDS011;8263;48.880;9.276;2023-04-30T03:02:51;130.30;;;121.05;;
16308;SDS011;8263;48.880;9.276;2023-04-30T03:05:18;131.23;;;121.85;;
16308;SDS011;8263;48.880;9.276;2023-04-30T03:07:46;130.20;;;120.78;;
16308;SDS011;8263;48.880;9.276;2023-04-30T03:10:12;133.00;;;123.28;;
16308;SDS011;8263;48.880;9.276;2023-04-30T03:12:39;131.55;;;122.15;;
16308;SDS011;8263;48.880;9.276;2023-04-30T03:15:06;130.73;;;121.45;;
16308;SDS011;8263;48.880;9.276;2023-04-30T03:17:32;129.52;;;120.22;;
16308;SDS011;8263;48.880;9.276;2023-04-30T03:19:59;130.63;;;121.35;;
16308;SDS011;8263;48.880;9.276;2023-04-30T03:22:25;128.85;;;119.80;;
16308;SDS011;8263;48.880;9.276;2023-04-30T03:24:53;132.80;;;123.13;;
16308;SDS011;8263;48.880;9.276;2023-04-30T03:27:21;130.07;;;120.88;;
16308;SDS011;8263;48.880;9.276;2023-04-30T03:29:48;130.63;;;121.35;;
16308;SDS011;8263;48.880;9.276;2023-04-30T03:32:14;131.35;;;121.82;;
16308;SDS011;8263;48.880;9.276;2023-04-30T03:34:41;130.05;;;120.85;;
16308;SDS011;8263;48.880;9.276;2023-04-30T03:37:07;131.10;;;121.70;;
16308;SDS011;8263;48.880;9.276;2023-04-30T03:39:34;131.35;;;122.05;;
16308;SDS011;8263;48.880;9.276;2023-04-30T03:42:02;130.85;;;121.65;;
16308;SDS011;8263;48.880;9.276;2023-04-30T03:44:28;129.30;;;120.20;;
16308;SDS011;8263;48.880;9.276;2023-04-30T03:46:55;129.65;;;120.45;;
16308;SDS011;8263;48.880;9.276;2023-04-30T03:49:22;130.60;;;121.35;;
16308;SDS011;8263;48.880;9.276;2023-04-30T03:51:48;128.73;;;119.70;;
16308;SDS011;8263;48.880;9.276;2023-04-30T03:54:15;130.60;;;121.43;;
16308;SDS011;8263;48.880;9.276;2023-04-30T03:56:43;131.75;;;122.45;;
16308;SDS011;8263;48.880;9.276;2023-04-30T03:59:11;130.57;;;121.35;;
16308;SDS011;8263;48.880;9.276;2023-04-30T04:01:37;129.73;;;120.45;;
16308;SDS011;8263;48.880;9.276;2023-04-30T04:04:04;128.18;;;119.18;;
16308;SDS011;8263;48.880;9.276;2023-04-30T04:06:30;129.88;;;120.78;;
16308;SDS011;8263;48.880;9.276;2023-04-30T04:08:57;131.00;;;121.70;;
16308;SDS011;8263;48.880;9.276;2023-04-30T04:11:23;131.60;;;122.20;;
16308;SDS011;8263;48.880;9.276;2023-04-30T04:13:50;131.25;;;121.93;;
16308;SDS011;8263;48.880;9.276;2023-04-30T04:16:18;127.80;;;118.85;;
16308;SDS011;8263;48.880;9.276;2023-04-30T04:18:46;130.23;;;120.97;;
16308;SDS011;8263;48.880;9.276;2023-04-30T04:21:12;127.70;;;118.80;;
16308;SDS011;8263;48.880;9.276;2023-04-30T04:23:39;131.50;;;122.10;;
16308;SDS011;8263;48.880;9.276;2023-04-30T04:26:05;127.80;;;118.80;;
16308;SDS011;8263;48.880;9.276;2023-04-30T04:28:32;128.35;;;119.32;;
16308;SDS011;8263;48.880;9.276;2023-04-30T04:30:58;129.82;;;120.63;;
16308;SDS011;8263;48.880;9.276;2023-04-30T04:33:26;129.55;;;120.45;;
16308;SDS011;8263;48.880;9.276;2023-04-30T04:35:53;128.32;;;119.32;;
16308;SDS011;8263;48.880;9.276;2023-04-30T04:38:22;128.10;;;118.68;;
16308;SDS011;8263;48.880;9.276;2023-04-30T04:40:51;131.27;;;121.97;;
16308;SDS011;8263;48.880;9.276;2023-04-30T04:43:18;131.77;;;122.15;;
16308;SDS011;8263;48.880;9.276;2023-04-30T04:45:45;130.93;;;121.72;;
16308;SDS011;8263;48.880;9.276;2023-04-30T04:48:12;130.73;;;121.43;;
16308;SDS011;8263;48.880;9.276;2023-04-30T04:50:40;130.30;;;121.13;;
16308;SDS011;8263;48.880;9.276;2023-04-30T04:53:06;129.35;;;120.13;;
16308;SDS011;8263;48.880;9.276;2023-04-30T04:55:33;132.38;;;122.80;;
16308;SDS011;8263;48.880;9.276;2023-04-30T04:58:00;131.02;;;121.57;;
16308;SDS011;8263;48.880;9.276;2023-04-30T05:00:26;129.35;;;120.28;;
16308;SDS011;8263;48.880;9.276;2023-04-30T05:02:54;129.48;;;120.30;;
16308;SDS011;8263;48.880;9.276;2023-04-30T05:05:20;131.65;;;122.22;;
16308;SDS011;8263;48.880;9.276;2023-04-30T05:07:48;131.35;;;121.95;;
16308;SDS011;8263;48.880;9.276;2023-04-30T05:10:18;132.25;;;122.85;;
16308;SDS011;8263;48.880;9.276;2023-04-30T05:12:45;132.25;;;122.57;;
16308;SDS011;8263;48.880;9.276;2023-04-30T05:15:11;131.38;;;121.97;;
16308;SDS011;8263;48.880;9.276;2023-04-30T05:17:38;132.98;;;123.32;;
16308;SDS011;8263;48.880;9.276;2023-04-30T05:20:06;132.00;;;122.50;;
16308;SDS011;8263;48.880;9.276;2023-04-30T05:22:32;131.48;;;122.22;;
16308;SDS011;8263;48.880;9.276;2023-04-30T05:25:01;131.40;;;122.00;;
16308;SDS011;8263;48.880;9.276;2023-04-30T05:27:27;132.57;;;123.18;;
16308;SDS011;8263;48.880;9.276;2023-04-30T05:29:55;132.05;;;122.63;;
16308;SDS011;8263;48.880;9.276;2023-04-30T05:32:22;130.50;;;121.07;;
16308;SDS011;8263;48.880;9.276;2023-04-30T05:34:48;132.60;;;123.10;;
16308;SDS011;8263;48.880;9.276;2023-04-30T05:37:15;129.13;;;120.00;;
16308;SDS011;8263;48.880;9.276;2023-04-30T05:39:43;131.80;;;122.40;;
16308;SDS011;8263;48.880;9.276;2023-04-30T05:42:12;132.88;;;123.45;;
16308;SDS011;8263;48.880;9.276;2023-04-30T05:44:39;128.48;;;119.30;;
16308;SDS011;8263;48.880;9.276;2023-04-30T05:47:06;131.88;;;122.47;;
16308;SDS011;8263;48.880;9.276;2023-04-30T05:49:32;130.50;;;121.22;;
16308;SDS011;8263;48.880;9.276;2023-04-30T05:51:59;131.65;;;122.10;;
16308;SDS011;8263;48.880;9.276;2023-04-30T05:54:26;130.35;;;121.05;;
16308;SDS011;8263;48.880;9.276;2023-04-30T05:56:52;130.23;;;120.97;;
16308;SDS011;8263;48.880;9.276;2023-04-30T05:59:20;129.52;;;120.30;;
16308;SDS011;8263;48.880;9.276;2023-04-30T06:01:46;131.55;;;122.15;;
16308;SDS011;8263;48.880;9.276;2023-04-30T06:04:13;132.23;;;122.63;;
16308;SDS011;8263;48.880;9.276;2023-04-30T06:06:39;129.57;;;120.45;;
16308;SDS011;8263;48.880;9.276;2023-04-30T06:09:06;131.60;;;122.32;;
16308;SDS011;8263;48.880;9.276;2023-04-30T06:11:32;130.93;;;121.53;;
16308;SDS011;8263;48.880;9.276;2023-04-30T06:14:02;131.00;;;121.75;;
16308;SDS011;8263;48.880;9.276;2023-04-30T06:16:30;130.05;;;120.85;;
16308;SDS011;8263;48.880;9.276;2023-04-30T06:18:56;132.20;;;122.78;;
16308;SDS011;8263;48.880;9.276;2023-04-30T06:21:23;130.15;;;120.75;;
16308;SDS011;8263;48.880;9.276;2023-04-30T06:23:50;131.32;;;121.95;;
16308;SDS011;8263;48.880;9.276;2023-04-30T06:26:17;128.70;;;119.57;;
16308;SDS011;8263;48.880;9.276;2023-04-30T06:28:44;132.27;;;122.72;;
16308;SDS011;8263;48.880;9.276;2023-04-30T06:31:10;129.98;;;120.78;;
16308;SDS011;8263;48.880;9.276;2023-04-30T06:33:39;131.20;;;121.53;;
16308;SDS011;8263;48.880;9.276;2023-04-30T06:36:06;133.85;;;123.90;;
16308;SDS011;8263;48.880;9.276;2023-04-30T06:38:32;133.30;;;123.47;;
16308;SDS011;8263;48.880;9.276;2023-04-30T06:40:59;132.40;;;123.00;;
16308;SDS011;8263;48.880;9.276;2023-04-30T06:43:26;129.35;;;119.72;;
16308;SDS011;8263;48.880;9.276;2023-04-30T06:45:52;129.43;;;120.18;;
16308;SDS011;8263;48.880;9.276;2023-04-30T06:48:18;129.75;;;120.55;;
16308;SDS011;8263;48.880;9.276;2023-04-30T06:50:47;125.47;;;116.68;;
16308;SDS011;8263;48.880;9.276;2023-04-30T06:53:13;130.63;;;121.43;;
16308;SDS011;8263;48.880;9.276;2023-04-30T06:55:40;131.27;;;121.82;;
16308;SDS011;8263;48.880;9.276;2023-04-30T06:58:07;131.77;;;122.32;;
16308;SDS011;8263;48.880;9.276;2023-04-30T07:00:33;130.40;;;121.05;;
16308;SDS011;8263;48.880;9.276;2023-04-30T07:03:00;129.60;;;120.40;;
16308;SDS011;8263;48.880;9.276;2023-04-30T07:05:28;128.20;;;119.20;;
16308;SDS011;8263;48.880;9.276;2023-04-30T07:07:56;128.68;;;119.28;;
16308;SDS011;8263;48.880;9.276;2023-04-30T07:10:23;129.00;;;119.82;;
16308;SDS011;8263;48.880;9.276;2023-04-30T07:12:50;127.90;;;118.93;;
16308;SDS011;8263;48.880;9.276;2023-04-30T07:15:16;127.32;;;118.32;;
16308;SDS011;8263;48.880;9.276;2023-04-30T07:17:43;127.70;;;118.72;;
16308;SDS011;8263;48.880;9.276;2023-04-30T07:20:10;128.13;;;119.03;;
16308;SDS011;8263;48.880;9.276;2023-04-30T07:22:38;128.40;;;119.38;;
16308;SDS011;8263;48.880;9.276;2023-04-30T07:25:07;127.30;;;118.40;;
16308;SDS011;8263;48.880;9.276;2023-04-30T07:27:35;128.10;;;119.00;;
16308;SDS011;8263;48.880;9.276;2023-04-30T07:30:02;127.43;;;118.43;;
16308;SDS011;8263;48.880;9.276;2023-04-30T07:32:28;125.55;;;116.88;;
16308;SDS011;8263;48.880;9.276;2023-04-30T07:34:55;129.35;;;119.75;;
16308;SDS011;8263;48.880;9.276;2023-04-30T07:37:23;127.18;;;118.38;;
16308;SDS011;8263;48.880;9.276;2023-04-30T07:39:53;127.07;;;118.28;;
16308;SDS011;8263;48.880;9.276;2023-04-30T07:42:22;127.10;;;118.22;;
16308;SDS011;8263;48.880;9.276;2023-04-30T07:44:48;128.02;;;118.85;;
16308;SDS011;8263;48.880;9.276;2023-04-30T07:47:16;126.93;;;118.13;;
16308;SDS011;8263;48.880;9.276;2023-04-30T07:49:44;124.20;;;115.68;;
16308;SDS011;8263;48.880;9.276;2023-04-30T07:52:10;124.97;;;116.22;;
16308;SDS011;8263;48.880;9.276;2023-04-30T07:54:37;125.63;;;116.97;;
16308;SDS011;8263;48.880;9.276;2023-04-30T07:57:04;126.78;;;117.97;;
16308;SDS011;8263;48.880;9.276;2023-04-30T07:59:32;125.07;;;116.40;;
16308;SDS011;8263;48.880;9.276;2023-04-30T08:01:59;125.25;;;116.63;;
16308;SDS011;8263;48.880;9.276;2023-04-30T08:04:26;122.07;;;113.78;;
16308;SDS011;8263;48.880;9.276;2023-04-30T08:06:53;124.20;;;115.70;;
16308;SDS011;8263;48.880;9.276;2023-04-30T08:09:19;123.07;;;114.57;;
16308;SDS011;8263;48.880;9.276;2023-04-30T08:11:46;125.35;;;116.75;;
16308;SDS011;8263;48.880;9.276;2023-04-30T08:14:12;121.32;;;113.03;;
16308;SDS011;8263;48.880;9.276;2023-04-30T08:16:40;123.47;;;114.85;;
16308;SDS011;8263;48.880;9.276;2023-04-30T08:19:07;124.15;;;115.60;;
16308;SDS011;8263;48.880;9.276;2023-04-30T08:21:34;122.80;;;114.38;;
16308;SDS011;8263;48.880;9.276;2023-04-30T08:24:00;121.28;;;112.88;;
16308;SDS011;8263;48.880;9.276;2023-04-30T08:26:27;122.75;;;114.28;;
16308;SDS011;8263;48.880;9.276;2023-04-30T08:28:54;124.63;;;115.88;;
16308;SDS011;8263;48.880;9.276;2023-04-30T08:31:20;122.82;;;114.43;;
16308;SDS011;8263;48.880;9.276;2023-04-30T08:33:48;123.88;;;115.18;;
16308;SDS011;8263;48.880;9.276;2023-04-30T08:36:15;122.72;;;114.32;;
16308;SDS011;8263;48.880;9.276;2023-04-30T08:38:42;120.75;;;112.60;;
16308;SDS011;8263;48.880;9.276;2023-04-30T08:41:10;122.32;;;114.03;;
16308;SDS011;8263;48.880;9.276;2023-04-30T08:43:37;121.35;;;113.15;;
16308;SDS011;8263;48.880;9.276;2023-04-30T08:46:04;123.10;;;114.70;;
16308;SDS011;8263;48.880;9.276;2023-04-30T08:48:30;122.35;;;114.05;;
16308;SDS011;8263;48.880;9.276;2023-04-30T08:50:59;120.53;;;112.43;;
16308;SDS011;8263;48.880;9.276;2023-04-30T08:53:26;121.85;;;113.55;;
16308;SDS011;8263;48.880;9.276;2023-04-30T08:55:52;122.28;;;113.90;;
16308;SDS011;8263;48.880;9.276;2023-04-30T08:58:19;121.45;;;112.75;;
16308;SDS011;8263;48.880;9.276;2023-04-30T09:00:45;119.85;;;111.57;;
16308;SDS011;8263;48.880;9.276;2023-04-30T09:03:12;119.10;;;111.03;;
16308;SDS011;8263;48.880;9.276;2023-04-30T09:05:38;120.13;;;111.95;;
16308;SDS011;8263;48.880;9.276;2023-04-30T09:08:07;119.53;;;111.28;;
16308;SDS011;8263;48.880;9.276;2023-04-30T09:10:34;120.55;;;112.35;;
16308;SDS011;8263;48.880;9.276;2023-04-30T09:13:01;120.97;;;112.78;;
16308;SDS011;8263;48.880;9.276;2023-04-30T09:15:28;118.20;;;110.28;;
16308;SDS011;8263;48.880;9.276;2023-04-30T09:18:05;121.70;;;113.50;;
16308;SDS011;8263;48.880;9.276;2023-04-30T09:20:31;120.88;;;112.68;;
16308;SDS011;8263;48.880;9.276;2023-04-30T09:23:04;119.97;;;111.88;;
16308;SDS011;8263;48.880;9.276;2023-04-30T09:25:38;119.22;;;111.22;;
16308;SDS011;8263;48.880;9.276;2023-04-30T09:28:06;117.38;;;109.47;;
16308;SDS011;8263;48.880;9.276;2023-04-30T09:30:32;119.03;;;111.05;;
16308;SDS011;8263;48.880;9.276;2023-04-30T09:32:59;117.80;;;109.78;;
16308;SDS011;8263;48.880;9.276;2023-04-30T09:35:29;118.97;;;110.97;;
16308;SDS011;8263;48.880;9.276;2023-04-30T09:37:55;119.63;;;111.60;;
16308;SDS011;8263;48.880;9.276;2023-04-30T09:40:31;118.40;;;110.47;;
16308;SDS011;8263;48.880;9.276;2023-04-30T09:42:59;120.70;;;112.60;;
16308;SDS011;8263;48.880;9.276;2023-04-30T09:45:25;118.85;;;110.85;;
16308;SDS011;8263;48.880;9.276;2023-04-30T09:47:52;118.38;;;110.38;;
16308;SDS011;8263;48.880;9.276;2023-04-30T09:50:19;116.72;;;108.93;;
16308;SDS011;8263;48.880;9.276;2023-04-30T09:52:46;116.72;;;108.95;;
16308;SDS011;8263;48.880;9.276;2023-04-30T09:55:14;118.63;;;110.65;;
16308;SDS011;8263;48.880;9.276;2023-04-30T09:57:40;117.57;;;109.70;;
16308;SDS011;8263;48.880;9.276;2023-04-30T10:00:09;118.22;;;110.32;;
16308;SDS011;8263;48.880;9.276;2023-04-30T10:02:36;119.65;;;111.57;;
16308;SDS011;8263;48.880;9.276;2023-04-30T10:05:03;119.35;;;111.35;;
16308;SDS011;8263;48.880;9.276;2023-04-30T10:07:30;116.78;;;108.97;;
16308;SDS011;8263;48.880;9.276;2023-04-30T10:10:02;117.40;;;109.50;;
16308;SDS011;8263;48.880;9.276;2023-04-30T10:12:30;116.90;;;109.10;;
16308;SDS011;8263;48.880;9.276;2023-04-30T10:15:03;117.95;;;110.05;;
16308;SDS011;8263;48.880;9.276;2023-04-30T10:17:32;117.78;;;109.93;;
16308;SDS011;8263;48.880;9.276;2023-04-30T10:20:02;114.63;;;106.97;;
16308;SDS011;8263;48.880;9.276;2023-04-30T10:22:31;116.82;;;109.03;;
16308;SDS011;8263;48.880;9.276;2023-04-30T10:24:59;117.80;;;109.35;;
16308;SDS011;8263;48.880;9.276;2023-04-30T10:27:26;117.35;;;109.35;;
16308;SDS011;8263;48.880;9.276;2023-04-30T10:29:53;116.45;;;108.65;;
16308;SDS011;8263;48.880;9.276;2023-04-30T10:32:20;115.85;;;108.15;;
16308;SDS011;8263;48.880;9.276;2023-04-30T10:34:51;117.05;;;109.18;;
16308;SDS011;8263;48.880;9.276;2023-04-30T10:37:21;115.88;;;108.15;;
16308;SDS011;8263;48.880;9.276;2023-04-30T10:39:49;117.97;;;110.07;;
16308;SDS011;8263;48.880;9.276;2023-04-30T10:42:16;115.13;;;107.47;;
16308;SDS011;8263;48.880;9.276;2023-04-30T10:44:42;115.93;;;108.22;;
16308;SDS011;8263;48.880;9.276;2023-04-30T10:47:10;114.00;;;106.40;;
16308;SDS011;8263;48.880;9.276;2023-04-30T10:49:36;115.78;;;107.88;;
16308;SDS011;8263;48.880;9.276;2023-04-30T10:52:09;114.03;;;106.47;;
16308;SDS011;8263;48.880;9.276;2023-04-30T10:54:36;114.72;;;107.03;;
16308;SDS011;8263;48.880;9.276;2023-04-30T10:57:09;114.05;;;106.45;;
16308;SDS011;8263;48.880;9.276;2023-04-30T10:59:37;114.15;;;106.47;;
16308;SDS011;8263;48.880;9.276;2023-04-30T11:02:07;114.10;;;106.53;;
16308;SDS011;8263;48.880;9.276;2023-04-30T11:04:41;117.18;;;109.35;;
16308;SDS011;8263;48.880;9.276;2023-04-30T11:07:29;113.93;;;106.32;;
16308;SDS011;8263;48.880;9.276;2023-04-30T11:09:55;112.63;;;105.13;;
16308;SDS011;8263;48.880;9.276;2023-04-30T11:12:24;112.88;;;105.28;;
16308;SDS011;8263;48.880;9.276;2023-04-30T11:15:00;112.38;;;104.97;;
16308;SDS011;8263;48.880;9.276;2023-04-30T11:17:30;114.18;;;106.55;;
16308;SDS011;8263;48.880;9.276;2023-04-30T11:19:58;115.13;;;107.45;;
16308;SDS011;8263;48.880;9.276;2023-04-30T11:22:25;115.47;;;107.80;;
16308;SDS011;8263;48.880;9.276;2023-04-30T11:25:02;112.97;;;105.47;;
16308;SDS011;8263;48.880;9.276;2023-04-30T11:27:29;114.70;;;107.10;;
16308;SDS011;8263;48.880;9.276;2023-04-30T11:29:57;114.30;;;106.63;;
16308;SDS011;8263;48.880;9.276;2023-04-30T11:32:24;115.85;;;108.10;;
16308;SDS011;8263;48.880;9.276;2023-04-30T11:34:51;114.38;;;106.78;;
16308;SDS011;8263;48.880;9.276;2023-04-30T11:37:19;114.32;;;106.72;;
16308;SDS011;8263;48.880;9.276;2023-04-30T11:39:46;115.20;;;107.57;;
16308;SDS011;8263;48.880;9.276;2023-04-30T11:42:16;114.53;;;106.93;;
16308;SDS011;8263;48.880;9.276;2023-04-30T11:44:43;113.07;;;105.50;;
16308;SDS011;8263;48.880;9.276;2023-04-30T11:47:11;110.38;;;102.85;;
16308;SDS011;8263;48.880;9.276;2023-04-30T11:49:38;113.85;;;106.25;;
16308;SDS011;8263;48.880;9.276;2023-04-30T11:52:05;111.00;;;103.60;;
16308;SDS011;8263;48.880;9.276;2023-04-30T11:54:34;112.88;;;105.40;;
16308;SDS011;8263;48.880;9.276;2023-04-30T11:57:00;110.82;;;103.53;;
16308;SDS011;8263;48.880;9.276;2023-04-30T11:59:30;113.38;;;105.88;;
16308;SDS011;8263;48.880;9.276;2023-04-30T12:01:56;112.90;;;105.38;;
16308;SDS011;8263;48.880;9.276;2023-04-30T12:04:23;111.38;;;104.03;;
16308;SDS011;8263;48.880;9.276;2023-04-30T12:06:50;108.78;;;101.57;;
16308;SDS011;8263;48.880;9.276;2023-04-30T12:09:16;110.50;;;103.18;;
16308;SDS011;8263;48.880;9.276;2023-04-30T12:11:43;107.80;;;100.72;;
16308;SDS011;8263;48.880;9.276;2023-04-30T12:14:09;110.70;;;103.40;;
16308;SDS011;8263;48.880;9.276;2023-04-30T12:16:42;109.97;;;102.72;;
16308;SDS011;8263;48.880;9.276;2023-04-30T12:19:09;112.97;;;105.47;;
16308;SDS011;8263;48.880;9.276;2023-04-30T12:21:36;110.85;;;103.60;;
16308;SDS011;8263;48.880;9.276;2023-04-30T12:24:04;110.95;;;103.65;;
16308;SDS011;8263;48.880;9.276;2023-04-30T12:26:34;110.65;;;103.35;;
16308;SDS011;8263;48.880;9.276;2023-04-30T12:29:02;109.90;;;102.70;;
16308;SDS011;8263;48.880;9.276;2023-04-30T12:31:30;112.30;;;104.90;;
16308;SDS011;8263;48.880;9.276;2023-04-30T12:33:58;108.22;;;101.13;;
16308;SDS011;8263;48.880;9.276;2023-04-30T12:36:28;110.13;;;102.85;;
16308;SDS011;8263;48.880;9.276;2023-04-30T12:39:00;110.93;;;103.68;;
16308;SDS011;8263;48.880;9.276;2023-04-30T12:41:28;109.70;;;102.50;;
16308;SDS011;8263;48.880;9.276;2023-04-30T12:46:35;110.65;;;103.40;;
16308;SDS011;8263;48.880;9.276;2023-04-30T12:49:04;109.95;;;102.55;;
16308;SDS011;8263;48.880;9.276;2023-04-30T12:51:31;106.70;;;99.70;;
16308;SDS011;8263;48.880;9.276;2023-04-30T12:53:59;109.28;;;102.07;;
16308;SDS011;8263;48.880;9.276;2023-04-30T12:56:25;109.78;;;102.57;;
16308;SDS011;8263;48.880;9.276;2023-04-30T12:58:52;107.68;;;100.68;;
16308;SDS011;8263;48.880;9.276;2023-04-30T13:01:20;108.70;;;101.57;;
16308;SDS011;8263;48.880;9.276;2023-04-30T13:03:48;107.50;;;100.43;;
16308;SDS011;8263;48.880;9.276;2023-04-30T13:06:16;109.47;;;102.28;;
16308;SDS011;8263;48.880;9.276;2023-04-30T13:08:43;111.10;;;103.80;;
16308;SDS011;8263;48.880;9.276;2023-04-30T13:11:09;109.38;;;102.20;;
16308;SDS011;8263;48.880;9.276;2023-04-30T13:13:36;109.75;;;102.55;;
16308;SDS011;8263;48.880;9.276;2023-04-30T13:16:05;108.82;;;101.72;;
16308;SDS011;8263;48.880;9.276;2023-04-30T13:18:31;108.15;;;101.05;;
16308;SDS011;8263;48.880;9.276;2023-04-30T13:20:58;109.50;;;102.30;;
16308;SDS011;8263;48.880;9.276;2023-04-30T13:23:26;110.25;;;103.00;;
16308;SDS011;8263;48.880;9.276;2023-04-30T13:25:52;108.05;;;100.97;;
16308;SDS011;8263;48.880;9.276;2023-04-30T13:28:19;108.43;;;101.32;;
16308;SDS011;8263;48.880;9.276;2023-04-30T13:30:47;107.30;;;100.20;;
16308;SDS011;8263;48.880;9.276;2023-04-30T13:33:13;109.25;;;102.05;;
16308;SDS011;8263;48.880;9.276;2023-04-30T13:35:40;106.63;;;99.72;;
16308;SDS011;8263;48.880;9.276;2023-04-30T13:38:07;108.30;;;101.15;;
16308;SDS011;8263;48.880;9.276;2023-04-30T13:40:38;110.90;;;103.50;;
16308;SDS011;8263;48.880;9.276;2023-04-30T13:43:05;110.80;;;103.53;;
16308;SDS011;8263;48.880;9.276;2023-04-30T13:45:32;108.57;;;101.38;;
16308;SDS011;8263;48.880;9.276;2023-04-30T13:48:00;108.97;;;101.88;;
16308;SDS011;8263;48.880;9.276;2023-04-30T13:50:26;109.60;;;102.40;;
16308;SDS011;8263;48.880;9.276;2023-04-30T13:52:53;106.32;;;99.43;;
16308;SDS011;8263;48.880;9.276;2023-04-30T13:55:19;107.75;;;100.65;;
16308;SDS011;8263;48.880;9.276;2023-04-30T13:57:48;108.68;;;101.22;;
16308;SDS011;8263;48.880;9.276;2023-04-30T14:00:15;107.93;;;100.90;;
16308;SDS011;8263;48.880;9.276;2023-04-30T14:02:42;108.38;;;101.28;;
16308;SDS011;8263;48.880;9.276;2023-04-30T14:05:08;108.55;;;101.45;;
16308;SDS011;8263;48.880;9.276;2023-04-30T14:07:35;108.85;;;101.75;;
16308;SDS011;8263;48.880;9.276;2023-04-30T14:10:02;108.68;;;101.57;;
16308;SDS011;8263;48.880;9.276;2023-04-30T14:12:28;107.90;;;100.82;;
16308;SDS011;8263;48.880;9.276;2023-04-30T14:14:57;107.70;;;100.70;;